Sunday, May 27, 2018, 3:40 PM GMT
Back to Local

CWSF, Cap Madeleine Meteorological Aeronautical Presentation System

Location: , , Canada Lat: 49.25
Local Time: 3:40 PM GMT (15:40 GMT) Lon: -65.333
Time Zone: GMT Elev: 95 ft

Show me the last for .
Show Coded

Time T Td Feel RH Dir Speed Gust Alt SLP Vis Weather Sky Remarks
2018-05-27 15:00 46 38 42 75 310° 6 - - 30.28 0 None
2018-05-27 14:00 46 38 44 74 300° 5 - - 30.28 0 None
2018-05-27 13:00 46 40 42 78 320° 8 - - 30.29 0 None
2018-05-27 12:00 46 36 42 69 300° 8 - - 30.28 0 None
2018-05-27 11:00 44 35 - 71 130° 2 - - 30.27 0 None
2018-05-27 10:00 38 32 32 77 160° 9 - - 30.26 0 None
2018-05-27 09:00 36 31 28 81 170° 12 - - 30.25 0 None
2018-05-27 08:00 36 31 31 81 170° 7 - - 30.23 0 None
2018-05-27 07:00 37 31 30 81 170° 9 - - 30.21 0 None
2018-05-27 06:00 37 32 29 80 170° 14 - - 30.18 0 None
2018-05-27 05:00 38 31 32 75 170° 10 - - 30.17 0 None
2018-05-27 04:00 39 31 34 72 170° 8 - - 30.16 0 None
2018-05-27 03:00 39 32 36 75 190° 5 - - 30.14 0 None
2018-05-27 02:00 40 33 - 76 190° 2 - - 30.12 0 None
2018-05-27 01:00 44 35 41 72 270° 5 - - 30.10 0 None
2018-05-27 00:00 44 40 40 84 310° 7 - - 30.07 0 None
2018-05-26 23:00 45 39 42 79 280° 6 - - 30.03 0 None
2018-05-26 22:00 47 39 43 74 280° 8 - - 30.00 0 None
2018-05-26 21:00 47 39 43 72 280° 8 - - 29.97 0 None
2018-05-26 20:00 46 41 42 82 280° 6 - - 29.94 0 None
2018-05-26 19:00 44 40 40 82 310° 8 - - 29.91 0 None
2018-05-26 18:00 43 38 38 83 280° 8 - - 29.89 0 None
2018-05-26 17:00 39 37 31 91 320° 14 - - 29.88 0 Peak wind: 21 mph (19 kts) from 320° at 43 min
2018-05-26 16:00 40 38 33 91 300° 14 - - 29.83 0 Peak wind: 20 mph (18 kts) from 310° at 47 min

Support USWX by starting your Amazon purchase here.